createdAt,value
2018-09-13T00:01:15.974Z,98128.79
2018-09-13T00:03:44.777Z,98166.27
2018-09-13T00:06:15.320Z,98181.58
2018-09-13T00:08:44.929Z,98174.05
2018-09-13T00:11:13.903Z,98174.42
2018-09-13T00:13:42.563Z,98176.78
2018-09-13T00:16:11.261Z,98181.16
2018-09-13T00:18:40.257Z,98180.28
2018-09-13T00:21:09.009Z,98168.92
2018-09-13T00:23:38.038Z,98153.27
2018-09-13T00:26:07.329Z,98143.83
2018-09-13T00:28:36.562Z,98164.34
2018-09-13T00:31:05.381Z,98158.03
2018-09-13T00:33:34.109Z,98148.53
2018-09-13T00:36:03.049Z,98151.56
2018-09-13T00:38:31.705Z,98154.51
2018-09-13T00:41:00.341Z,98149.48
2018-09-13T00:43:29.090Z,98149.31
2018-09-13T00:45:58.117Z,98141.13
2018-09-13T00:48:26.916Z,98138.27
2018-09-13T00:50:55.641Z,98129.75
2018-09-13T00:53:24.292Z,98122.45
2018-09-13T00:55:53.058Z,98118.13
2018-09-13T00:58:21.695Z,98110.94
2018-09-13T01:00:50.694Z,98107.41
2018-09-13T01:03:19.382Z,98100.58
2018-09-13T01:05:48.193Z,98094.88
2018-09-13T01:08:17.213Z,98093.52
2018-09-13T01:10:45.855Z,98100.94
2018-09-13T01:13:14.787Z,98100.58
2018-09-13T01:15:43.405Z,98100.23
2018-09-13T01:18:12.097Z,98097.34
2018-09-13T01:20:41.158Z,98094.97
2018-09-13T01:23:09.894Z,98099.96
2018-09-13T01:25:38.586Z,98096.56
2018-09-13T01:28:07.389Z,98094.75
2018-09-13T01:30:36.960Z,98098.16
2018-09-13T01:33:06.232Z,98092.34
2018-09-13T01:35:35.793Z,98095.17
2018-09-13T01:38:04.510Z,98103.16
2018-09-13T01:40:33.171Z,98102.27
2018-09-13T01:43:01.842Z,98109.66
2018-09-13T01:45:30.563Z,98114.55
2018-09-13T01:47:59.509Z,98113.44
2018-09-13T01:50:28.921Z,98118.77
2018-09-13T01:52:58.392Z,98119.78
2018-09-13T01:55:27.825Z,98123.21
2018-09-13T01:57:56.634Z,98125.47
2018-09-13T02:00:25.451Z,98123.44
2018-09-13T02:02:54.130Z,98121.27
2018-09-13T02:05:23.376Z,98121.39
2018-09-13T02:07:52.531Z,98124.80
2018-09-13T02:10:22.126Z,98128.65
2018-09-13T02:12:51.553Z,98119.91
2018-09-13T02:15:20.809Z,98108.41
2018-09-13T02:17:49.974Z,98115.01
2018-09-13T02:20:19.574Z,98109.66
2018-09-13T02:22:48.905Z,98102.27
2018-09-13T02:25:18.499Z,98102.06
2018-09-13T02:27:47.223Z,98100.80
2018-09-13T02:30:15.894Z,98102.51
2018-09-13T02:32:44.623Z,98098.28
2018-09-13T02:35:13.530Z,98094.41
2018-09-13T02:37:42.190Z,98091.36
2018-09-13T02:40:10.954Z,98091.81
2018-09-13T02:42:39.860Z,98097.48
2018-09-13T02:45:08.915Z,98090.20
2018-09-13T02:47:37.609Z,98090.45
2018-09-13T02:50:06.309Z,98090.67
2018-09-13T02:52:35.336Z,98093.41
2018-09-13T02:55:04.159Z,98090.66
2018-09-13T02:57:32.909Z,98093.56
2018-09-13T03:00:02.138Z,98089.02
2018-09-13T03:02:30.785Z,98087.21
2018-09-13T03:04:59.437Z,98089.48
2018-09-13T03:07:28.185Z,98098.34
2018-09-13T03:09:57.014Z,98094.70
2018-09-13T03:12:25.772Z,98095.84
2018-09-13T03:14:54.554Z,98091.53
2018-09-13T03:17:23.281Z,98088.22
2018-09-13T03:19:51.959Z,98084.12
2018-09-13T03:22:20.611Z,98087.87
2018-09-13T03:24:49.526Z,98088.78
2018-09-13T03:27:18.374Z,98088.77
2018-09-13T03:29:47.146Z,98087.40
2018-09-13T03:32:15.814Z,98081.72
2018-09-13T03:34:44.450Z,98079.00
2018-09-13T03:37:13.313Z,98068.09
2018-09-13T03:39:42.110Z,98069.48
2018-09-13T03:42:10.810Z,98057.87
2018-09-13T03:44:39.428Z,98061.53
2018-09-13T03:47:08.061Z,98060.61
2018-09-13T03:49:36.783Z,98059.14
2018-09-13T03:52:05.702Z,98069.48
2018-09-13T03:54:34.488Z,98065.14
2018-09-13T03:57:03.290Z,98076.03
2018-09-13T03:59:32.081Z,98068.31
2018-09-13T04:02:00.854Z,98067.83
2018-09-13T04:04:29.521Z,98065.81
2018-09-13T04:06:58.748Z,98066.95
2018-09-13T04:09:28.121Z,98061.23
2018-09-13T04:11:57.365Z,98064.87
2018-09-13T04:14:26.749Z,98063.75
2018-09-13T04:16:56.505Z,98058.73
2018-09-13T04:19:30.759Z,98064.06
2018-09-13T04:21:59.769Z,98057.14
2018-09-13T04:24:29.191Z,98062.94
2018-09-13T04:26:57.937Z,98057.34
2018-09-13T04:29:26.773Z,98055.08
2018-09-13T04:31:56.612Z,98063.47
2018-09-13T04:34:26.420Z,98063.24
2018-09-13T04:36:56.043Z,98072.69
2018-09-13T04:39:25.276Z,98079.05
2018-09-13T04:41:55.061Z,98084.27
2018-09-13T04:44:24.095Z,98092.08
2018-09-13T04:46:52.853Z,98121.03
2018-09-13T04:49:21.885Z,98121.82
2018-09-13T04:51:50.949Z,98118.30
2018-09-13T04:54:19.615Z,98125.68
2018-09-13T04:56:48.805Z,98118.19
2018-09-13T04:59:17.493Z,98116.77
2018-09-13T05:01:46.542Z,98116.19
2018-09-13T05:04:15.437Z,98128.19
2018-09-13T05:06:44.243Z,98122.28
2018-09-13T05:09:14.574Z,98123.80
2018-09-13T05:11:44.068Z,98115.85
2018-09-13T05:14:13.282Z,98115.85
2018-09-13T05:16:42.051Z,98126.78
2018-09-13T05:19:10.777Z,98117.70
2018-09-13T05:21:39.714Z,98119.52
2018-09-13T05:24:08.617Z,98109.36
2018-09-13T05:26:37.373Z,98103.91
2018-09-13T05:29:06.207Z,98128.47
2018-09-13T05:31:34.943Z,98115.44
2018-09-13T05:34:03.671Z,98118.98
2018-09-13T05:36:32.411Z,98115.75
2018-09-13T05:39:01.238Z,98108.94
2018-09-13T05:41:33.026Z,98100.88
2018-09-13T05:44:01.738Z,98107.83
2018-09-13T05:46:30.681Z,98100.33
2018-09-13T05:48:59.766Z,98099.42
2018-09-13T05:51:28.481Z,98096.83
2018-09-13T05:53:57.252Z,98099.42
2018-09-13T05:56:26.024Z,98103.40
2018-09-13T05:58:55.253Z,98103.48
2018-09-13T06:01:23.973Z,98103.51
2018-09-13T06:03:52.699Z,98112.84
2018-09-13T06:06:21.435Z,98122.16
2018-09-13T06:08:50.698Z,98124.33
2018-09-13T06:11:19.605Z,98128.78
2018-09-13T06:13:48.493Z,98119.47
2018-09-13T06:16:17.210Z,98114.52
2018-09-13T06:18:45.915Z,98118.19
2018-09-13T06:21:14.925Z,98114.33
2018-09-13T06:23:43.627Z,98117.06
2018-09-13T06:26:12.426Z,98113.89
2018-09-13T06:28:41.333Z,98105.22
2018-09-13T06:31:10.163Z,98101.48
2018-09-13T06:33:38.896Z,98098.86
2018-09-13T06:36:08.045Z,98106.73
2018-09-13T06:38:36.741Z,98110.70
2018-09-13T06:41:05.726Z,98112.95
2018-09-13T06:43:34.459Z,98107.72
2018-09-13T06:46:03.129Z,98116.36
2018-09-13T06:48:31.874Z,98117.05
2018-09-13T06:51:00.622Z,98119.78
2018-09-13T06:53:29.418Z,98115.94
2018-09-13T06:55:58.106Z,98117.76
2018-09-13T06:58:26.764Z,98119.80
2018-09-13T07:00:55.592Z,98118.87
2018-09-13T07:03:24.365Z,98121.82
2018-09-13T07:05:53.110Z,98115.91
2018-09-13T07:08:21.847Z,98119.08
2018-09-13T07:10:50.645Z,98124.29
2018-09-13T07:13:19.624Z,98116.74
2018-09-13T07:15:48.531Z,98112.80
2018-09-13T07:18:17.293Z,98120.41
2018-09-13T07:20:45.970Z,98133.03
2018-09-13T07:23:14.608Z,98128.83
2018-09-13T07:25:43.408Z,98121.18
2018-09-13T07:28:12.122Z,98125.86
2018-09-13T07:30:40.777Z,98124.13
2018-09-13T07:33:09.780Z,98114.79
2018-09-13T07:35:38.472Z,98115.73
2018-09-13T07:38:07.427Z,98112.02
2018-09-13T07:40:36.185Z,98113.11
2018-09-13T07:43:05.008Z,98125.73
2018-09-13T07:45:33.737Z,98126.54
2018-09-13T07:48:02.413Z,98123.75
2018-09-13T07:50:31.290Z,98123.37
2018-09-13T07:53:00.098Z,98134.52
2018-09-13T07:55:28.812Z,98143.17
2018-09-13T07:57:57.774Z,98148.47
2018-09-13T08:00:26.498Z,98141.00
2018-09-13T08:02:55.210Z,98136.58
2018-09-13T08:05:23.973Z,98129.73
2018-09-13T08:07:52.795Z,98125.50
2018-09-13T08:10:21.526Z,98128.50
2018-09-13T08:12:50.229Z,98126.45
2018-09-13T08:15:19.178Z,98130.42
2018-09-13T08:17:47.926Z,98131.36
2018-09-13T08:20:16.685Z,98111.70
2018-09-13T08:22:45.361Z,98108.20
2018-09-13T08:25:14.119Z,98102.69
2018-09-13T08:27:43.000Z,98102.97
2018-09-13T08:30:11.793Z,98098.67
2018-09-13T08:32:40.490Z,98102.94
2018-09-13T08:35:09.336Z,98108.32
2018-09-13T08:37:38.083Z,98117.21
2018-09-13T08:40:06.893Z,98111.38
2018-09-13T08:42:35.565Z,98103.84
2018-09-13T08:45:04.358Z,98119.45
2018-09-13T08:47:33.200Z,98118.33
2018-09-13T08:50:01.773Z,98125.59
2018-09-13T08:52:30.487Z,98141.96
2018-09-13T08:54:59.196Z,98145.76
2018-09-13T08:57:27.966Z,98159.84
2018-09-13T08:59:56.726Z,98156.72
2018-09-13T09:02:25.402Z,98164.37
2018-09-13T09:04:54.092Z,98162.61
2018-09-13T09:07:22.792Z,98160.94
2018-09-13T09:09:51.466Z,98152.71
2018-09-13T09:12:20.195Z,98151.08
2018-09-13T09:14:49.201Z,98153.72
2018-09-13T09:17:18.090Z,98148.25
2018-09-13T09:19:46.781Z,98139.47
2018-09-13T09:22:15.527Z,98142.78
2018-09-13T09:24:44.220Z,98143.98
2018-09-13T09:27:13.025Z,98140.48
2018-09-13T09:29:42.201Z,98145.39
2018-09-13T09:32:10.904Z,98145.62
2018-09-13T09:34:39.608Z,98148.63
2018-09-13T09:37:08.424Z,98153.28
2018-09-13T09:39:37.128Z,98155.17
2018-09-13T09:42:05.822Z,98145.72
2018-09-13T09:44:34.514Z,98143.42
2018-09-13T09:47:03.214Z,98155.81
2018-09-13T09:49:31.882Z,98152.68
2018-09-13T09:52:00.789Z,98156.65
2018-09-13T09:54:29.664Z,98160.56
2018-09-13T09:56:58.894Z,98153.24
2018-09-13T09:59:27.901Z,98156.17
2018-09-13T10:02:01.863Z,98158.02
2018-09-13T10:04:30.547Z,98163.92
2018-09-13T10:06:59.425Z,98153.94
2018-09-13T10:09:28.120Z,98157.55
2018-09-13T10:11:56.886Z,98150.02
2018-09-13T10:14:25.599Z,98147.17
2018-09-13T10:16:59.447Z,98148.77
2018-09-13T10:19:33.519Z,98151.78
2018-09-13T10:22:07.382Z,98157.80
2018-09-13T10:24:41.409Z,98153.34
2018-09-13T10:27:15.398Z,98157.84
2018-09-13T10:29:49.493Z,98153.06
2018-09-13T10:32:23.350Z,98158.55
2018-09-13T10:34:57.287Z,98152.22
2018-09-13T10:37:31.394Z,98151.75
2018-09-13T10:40:05.381Z,98148.91
2018-09-13T10:42:39.341Z,98143.72
2018-09-13T10:45:13.486Z,98148.73
2018-09-13T10:47:56.482Z,98148.58
2018-09-13T10:50:35.510Z,98147.66
2018-09-13T10:53:39.210Z,98155.20
2018-09-13T10:56:08.565Z,98156.84
2018-09-13T10:58:37.293Z,98150.70
2018-09-13T11:01:06.357Z,98147.16
2018-09-13T11:03:35.108Z,98145.58
2018-09-13T11:06:03.889Z,98147.38
2018-09-13T11:08:32.663Z,98149.86
2018-09-13T11:11:01.589Z,98151.95
2018-09-13T11:13:38.232Z,98148.86
2018-09-13T11:16:06.917Z,98150.58
2018-09-13T11:18:35.780Z,98151.81
2018-09-13T11:21:04.478Z,98151.27
2018-09-13T11:23:33.125Z,98145.19
2018-09-13T11:26:01.837Z,98156.35
2018-09-13T11:28:31.143Z,98151.96
2018-09-13T11:31:04.399Z,98149.63
2018-09-13T11:33:34.549Z,98150.91
2018-09-13T11:36:03.621Z,98148.87
2018-09-13T11:38:32.472Z,98148.67
2018-09-13T11:41:01.336Z,98141.08
2018-09-13T11:43:30.182Z,98143.11
2018-09-13T11:45:58.973Z,98142.95
2018-09-13T11:48:27.970Z,98147.39
2018-09-13T11:50:56.770Z,98141.91
2018-09-13T11:53:26.021Z,98144.58
2018-09-13T11:55:54.725Z,98138.99
2018-09-13T11:58:23.813Z,98139.33
2018-09-13T12:00:53.067Z,98133.18
2018-09-13T12:03:21.821Z,98137.67
2018-09-13T12:05:51.063Z,98129.06
2018-09-13T12:08:20.291Z,98121.79
2018-09-13T12:10:48.977Z,98118.72
2018-09-13T12:13:17.745Z,98116.55
2018-09-13T12:15:46.485Z,98112.11
2018-09-13T12:18:15.199Z,98129.77
2018-09-13T12:20:44.412Z,98116.02
2018-09-13T12:23:13.528Z,98120.52
2018-09-13T12:25:43.046Z,98124.23
2018-09-13T12:28:11.730Z,98121.06
2018-09-13T12:30:40.727Z,98125.24
2018-09-13T12:33:09.454Z,98121.29
2018-09-13T12:35:38.370Z,98115.86
2018-09-13T12:38:07.820Z,98115.70
2018-09-13T12:40:36.787Z,98116.23
2018-09-13T12:43:05.554Z,98111.09
2018-09-13T12:45:34.528Z,98111.85
2018-09-13T12:48:03.333Z,98106.80
2018-09-13T12:50:32.052Z,98099.30
2018-09-13T12:53:00.859Z,98098.45
2018-09-13T12:55:33.831Z,98089.44
2018-09-13T12:58:02.748Z,98091.05
2018-09-13T13:00:31.678Z,98091.83
2018-09-13T13:03:00.314Z,98085.64
2018-09-13T13:05:28.978Z,98089.08
2018-09-13T13:07:58.033Z,98081.77
2018-09-13T13:10:27.352Z,98084.42
2018-09-13T13:12:56.036Z,98080.80
2018-09-13T13:15:24.758Z,98076.86
2018-09-13T13:17:53.490Z,98074.69
2018-09-13T13:20:22.404Z,98072.66
2018-09-13T13:22:51.273Z,98077.29
2018-09-13T13:25:20.257Z,98075.67
2018-09-13T13:27:49.106Z,98060.88
2018-09-13T13:30:18.055Z,98067.03
2018-09-13T13:32:46.773Z,98069.23
2018-09-13T13:35:15.659Z,98068.09
2018-09-13T13:37:44.383Z,98059.50
2018-09-13T13:40:13.196Z,98052.00
2018-09-13T13:42:42.002Z,98062.35
2018-09-13T13:45:10.882Z,98058.84
2018-09-13T13:47:39.724Z,98054.59
2018-09-13T13:50:08.664Z,98052.05
2018-09-13T13:52:37.463Z,98042.48
2018-09-13T13:55:06.325Z,98039.69
2018-09-13T13:57:35.042Z,98046.21
2018-09-13T14:00:03.887Z,98047.41
2018-09-13T14:02:32.626Z,98047.51
2018-09-13T14:05:01.414Z,98043.64
2018-09-13T14:07:30.387Z,98048.02
2018-09-13T14:09:59.145Z,98045.11
2018-09-13T14:12:27.881Z,98048.84
2018-09-13T14:14:56.776Z,98047.50
2018-09-13T14:17:25.564Z,98046.20
2018-09-13T14:19:54.223Z,98048.38
2018-09-13T14:22:22.977Z,98049.55
2018-09-13T14:24:51.671Z,98049.14
2018-09-13T14:27:20.341Z,98044.59
2018-09-13T14:29:49.136Z,98041.15
2018-09-13T14:32:17.801Z,98038.89
2018-09-13T14:34:46.517Z,98034.77
2018-09-13T14:37:15.247Z,98031.36
2018-09-13T14:39:44.060Z,98030.62
2018-09-13T14:42:13.009Z,98021.98
2018-09-13T14:44:41.666Z,98024.52
2018-09-13T14:47:10.524Z,98021.82
2018-09-13T14:49:39.186Z,98024.97
2018-09-13T14:52:08.193Z,98022.92
2018-09-13T14:54:36.871Z,98021.63
2018-09-13T14:57:05.609Z,98021.08
2018-09-13T14:59:34.267Z,98020.55
2018-09-13T15:02:03.019Z,98015.03
2018-09-13T15:04:32.391Z,98011.14
2018-09-13T15:07:01.393Z,98008.51
2018-09-13T15:09:30.340Z,98007.38
2018-09-13T15:11:59.058Z,97999.41
2018-09-13T15:14:29.310Z,97992.88
2018-09-13T15:17:00.045Z,98001.50
2018-09-13T15:19:29.877Z,98003.59
2018-09-13T15:21:58.554Z,97994.77
2018-09-13T15:24:27.455Z,97991.87
2018-09-13T15:26:56.206Z,97987.09
2018-09-13T15:29:25.186Z,97984.41
2018-09-13T15:31:54.041Z,97987.17
2018-09-13T15:34:22.751Z,97993.70
2018-09-13T15:36:51.409Z,97996.78
2018-09-13T15:39:20.209Z,97992.65
2018-09-13T15:41:48.957Z,97997.09
2018-09-13T15:44:17.865Z,97988.66
2018-09-13T15:46:46.628Z,97999.64
2018-09-13T15:49:15.317Z,97997.88
2018-09-13T15:51:44.085Z,97999.67
2018-09-13T15:54:12.724Z,97990.53
2018-09-13T15:56:41.489Z,97996.19
2018-09-13T15:59:10.226Z,97996.80
2018-09-13T16:01:39.221Z,98000.18
2018-09-13T16:04:08.006Z,98002.39
2018-09-13T16:06:36.743Z,98008.28
2018-09-13T16:09:08.051Z,98009.27
2018-09-13T16:11:37.131Z,98017.81
2018-09-13T16:14:05.913Z,98016.27
2018-09-13T16:16:35.131Z,98015.36
2018-09-13T16:19:03.981Z,98009.84
2018-09-13T16:21:32.793Z,98013.85
2018-09-13T16:24:01.470Z,98007.74
2018-09-13T16:26:30.267Z,98006.11
2018-09-13T16:28:59.277Z,98001.98
2018-09-13T16:31:27.994Z,98000.92
2018-09-13T16:33:56.790Z,98010.30
2018-09-13T16:36:30.740Z,98012.41
2018-09-13T16:39:05.351Z,98011.37
2018-09-13T16:41:40.881Z,98020.63
2018-09-13T16:44:14.221Z,98022.00
2018-09-13T16:46:48.053Z,98022.88
2018-09-13T16:49:16.878Z,98028.67
2018-09-13T16:51:45.625Z,98030.42
2018-09-13T16:54:14.413Z,98029.34
2018-09-13T16:56:43.294Z,98031.44
2018-09-13T16:59:11.990Z,98025.33
2018-09-13T17:01:40.899Z,98019.19
2018-09-13T17:04:09.601Z,98019.33
2018-09-13T17:06:38.505Z,98018.06
2018-09-13T17:09:09.643Z,98020.75
2018-09-13T17:11:38.362Z,98031.16
2018-09-13T17:14:07.170Z,98027.78
2018-09-13T17:16:35.874Z,98028.44
2018-09-13T17:19:04.675Z,98032.97
2018-09-13T17:21:33.401Z,98032.77
2018-09-13T17:24:02.130Z,98033.48
2018-09-13T17:26:31.531Z,98034.24
2018-09-13T17:29:00.817Z,98033.17
2018-09-13T17:31:29.685Z,98031.45
2018-09-13T17:33:59.164Z,98035.92
2018-09-13T17:36:28.422Z,98036.84
2018-09-13T17:38:57.066Z,98037.88
2018-09-13T17:41:25.787Z,98031.94
2018-09-13T17:43:54.749Z,98035.40
2018-09-13T17:46:23.687Z,98039.73
2018-09-13T17:48:52.362Z,98041.44
2018-09-13T17:51:21.037Z,98042.92
2018-09-13T17:53:49.955Z,98045.18
2018-09-13T17:56:18.818Z,98037.31
2018-09-13T17:58:47.854Z,98042.81
2018-09-13T18:01:16.533Z,98042.09
2018-09-13T18:03:45.544Z,98042.46
2018-09-13T18:06:14.314Z,98039.59
2018-09-13T18:08:43.070Z,98034.52
2018-09-13T18:11:12.057Z,98041.71
2018-09-13T18:13:41.093Z,98039.12
2018-09-13T18:16:09.857Z,98044.66
2018-09-13T18:18:38.883Z,98041.67
2018-09-13T18:21:07.842Z,98047.09
2018-09-13T18:23:36.599Z,98048.05
2018-09-13T18:26:05.306Z,98049.79
2018-09-13T18:28:34.230Z,98058.37
2018-09-13T18:31:03.723Z,98051.30
2018-09-13T18:33:32.396Z,98054.20
2018-09-13T18:36:01.218Z,98050.87
2018-09-13T18:38:29.930Z,98054.88
2018-09-13T18:40:58.890Z,98057.92
2018-09-13T18:43:27.619Z,98057.41
2018-09-13T18:45:56.406Z,98056.34
2018-09-13T18:48:25.115Z,98060.91
2018-09-13T18:50:53.827Z,98067.19
2018-09-13T18:53:22.514Z,98070.76
2018-09-13T18:55:51.262Z,98072.34
2018-09-13T18:58:20.045Z,98070.17
2018-09-13T19:00:49.174Z,98076.98
2018-09-13T19:03:17.861Z,98078.73
2018-09-13T19:05:46.690Z,98083.00
2018-09-13T19:08:15.584Z,98083.87
2018-09-13T19:10:44.265Z,98081.58
2018-09-13T19:13:13.055Z,98086.61
2018-09-13T19:15:42.100Z,98085.10
2018-09-13T19:18:10.812Z,98082.77
2018-09-13T19:20:39.493Z,98091.15
2018-09-13T19:23:08.205Z,98091.22
2018-09-13T19:25:36.950Z,98098.59
2018-09-13T19:28:05.885Z,98105.88
2018-09-13T19:30:34.535Z,98111.36
2018-09-13T19:33:03.303Z,98106.61
2018-09-13T19:35:32.549Z,98113.95
2018-09-13T19:38:01.210Z,98113.95
2018-09-13T19:40:29.962Z,98117.63
2018-09-13T19:42:58.699Z,98117.27
2018-09-13T19:45:27.366Z,98118.55
2018-09-13T19:47:56.196Z,98115.38
2018-09-13T19:50:24.977Z,98119.28
2018-09-13T19:52:53.799Z,98122.39
2018-09-13T19:55:22.546Z,98124.18
2018-09-13T19:57:51.227Z,98122.65
2018-09-13T20:00:19.931Z,98119.12
2018-09-13T20:02:48.688Z,98122.33
2018-09-13T20:05:17.539Z,98115.00
2018-09-13T20:07:46.336Z,98123.00
2018-09-13T20:10:15.090Z,98125.86
2018-09-13T20:12:43.765Z,98124.47
2018-09-13T20:15:12.534Z,98128.61
2018-09-13T20:17:41.367Z,98129.89
2018-09-13T20:20:10.037Z,98131.14
2018-09-13T20:22:38.791Z,98140.07
2018-09-13T20:25:07.903Z,98143.70
2018-09-13T20:27:36.928Z,98142.48
2018-09-13T20:30:07.063Z,98154.47
2018-09-13T20:32:35.705Z,98148.25
2018-09-13T20:35:04.506Z,98153.56
2018-09-13T20:37:33.249Z,98158.59
2018-09-13T20:40:02.083Z,98167.05
2018-09-13T20:42:31.291Z,98164.37
2018-09-13T20:44:59.965Z,98165.84
2018-09-13T20:47:28.766Z,98169.78
2018-09-13T20:49:57.552Z,98171.37
2018-09-13T20:52:26.301Z,98170.01
2018-09-13T20:54:55.018Z,98175.81
2018-09-13T20:57:23.917Z,98181.52
2018-09-13T20:59:52.913Z,98173.55
2018-09-13T21:02:21.654Z,98177.81
2018-09-13T21:04:50.366Z,98174.51
2018-09-13T21:07:19.230Z,98181.81
2018-09-13T21:09:47.930Z,98183.75
2018-09-13T21:12:16.610Z,98184.78
2018-09-13T21:14:45.319Z,98188.89
2018-09-13T21:17:14.018Z,98191.27
2018-09-13T21:19:43.039Z,98196.43
2018-09-13T21:22:12.193Z,98193.48
2018-09-13T21:24:40.838Z,98193.97
2018-09-13T21:27:09.662Z,98201.59
2018-09-13T21:29:38.372Z,98204.22
2018-09-13T21:32:07.082Z,98202.60
2018-09-13T21:34:35.749Z,98202.83
2018-09-13T21:37:04.432Z,98214.12
2018-09-13T21:39:33.141Z,98209.91
2018-09-13T21:42:01.862Z,98220.00
2018-09-13T21:44:30.800Z,98221.75
2018-09-13T21:46:59.473Z,98219.42
2018-09-13T21:49:28.161Z,98220.79
2018-09-13T21:51:56.883Z,98216.60
2018-09-13T21:54:25.526Z,98223.34
2018-09-13T21:56:54.252Z,98225.13
2018-09-13T21:59:22.893Z,98221.70
2018-09-13T22:01:51.618Z,98222.63
2018-09-13T22:04:20.306Z,98218.08
2018-09-13T22:06:49.097Z,98221.25
2018-09-13T22:09:17.906Z,98219.43
2018-09-13T22:11:46.668Z,98219.53
2018-09-13T22:14:15.341Z,98229.33
2018-09-13T22:16:44.062Z,98227.73
2018-09-13T22:19:12.911Z,98223.50
2018-09-13T22:21:41.855Z,98223.86
2018-09-13T22:24:10.513Z,98226.00
2018-09-13T22:26:39.192Z,98228.51
2018-09-13T22:29:08.064Z,98225.66
2018-09-13T22:31:36.682Z,98223.83
2018-09-13T22:34:07.511Z,98224.31
2018-09-13T22:36:36.934Z,98230.09
2018-09-13T22:39:10.110Z,98232.91
2018-09-13T22:41:39.302Z,98228.41
2018-09-13T22:44:07.969Z,98224.53
2018-09-13T22:46:36.631Z,98224.86
2018-09-13T22:49:05.413Z,98224.96
2018-09-13T22:51:34.180Z,98220.50
2018-09-13T22:54:03.301Z,98216.53
2018-09-13T22:56:32.249Z,98225.06
2018-09-13T22:59:01.081Z,98222.36
2018-09-13T23:01:30.068Z,98219.16
2018-09-13T23:03:59.051Z,98223.48
2018-09-13T23:06:27.833Z,98215.52
2018-09-13T23:08:56.961Z,98220.84
2018-09-13T23:11:25.729Z,98216.64
2018-09-13T23:13:54.622Z,98215.00
2018-09-13T23:16:23.433Z,98224.55
2018-09-13T23:18:52.305Z,98225.71
2018-09-13T23:21:21.143Z,98225.27
2018-09-13T23:23:49.852Z,98227.34
2018-09-13T23:26:18.485Z,98230.05
2018-09-13T23:28:47.557Z,98227.55
2018-09-13T23:31:16.298Z,98221.88
2018-09-13T23:33:45.082Z,98228.00
2018-09-13T23:36:13.767Z,98233.70
2018-09-13T23:38:42.466Z,98228.00
2018-09-13T23:41:11.406Z,98224.40
2018-09-13T23:43:40.481Z,98224.50
2018-09-13T23:46:09.172Z,98222.55
2018-09-13T23:48:38.079Z,98225.20
2018-09-13T23:51:06.761Z,98217.63
2018-09-13T23:53:35.652Z,98220.72
2018-09-13T23:56:04.823Z,98208.39
2018-09-13T23:58:33.651Z,98215.64
